sensor_id;sensor_type;location;lat;lon;timestamp;temperature;humidity
4501;DHT22;2263;54.654;9.410;2023-04-25T00:00:56;10.30;85.70
4501;DHT22;2263;54.654;9.410;2023-04-25T00:03:24;10.30;85.70
4501;DHT22;2263;54.654;9.410;2023-04-25T00:05:52;10.20;85.60
4501;DHT22;2263;54.654;9.410;2023-04-25T00:08:20;10.20;85.50
4501;DHT22;2263;54.654;9.410;2023-04-25T00:10:48;10.20;85.40
4501;DHT22;2263;54.654;9.410;2023-04-25T00:13:16;10.20;85.50
4501;DHT22;2263;54.654;9.410;2023-04-25T00:15:44;10.20;85.60
4501;DHT22;2263;54.654;9.410;2023-04-25T00:18:15;10.20;85.40
4501;DHT22;2263;54.654;9.410;2023-04-25T00:20:43;10.20;85.40
4501;DHT22;2263;54.654;9.410;2023-04-25T00:23:14;10.10;85.30
4501;DHT22;2263;54.654;9.410;2023-04-25T00:25:46;10.10;85.20
4501;DHT22;2263;54.654;9.410;2023-04-25T00:28:14;10.10;85.20
4501;DHT22;2263;54.654;9.410;2023-04-25T00:30:42;10.10;85.20
4501;DHT22;2263;54.654;9.410;2023-04-25T00:33:10;10.10;85.30
4501;DHT22;2263;54.654;9.410;2023-04-25T00:35:38;10.10;85.20
4501;DHT22;2263;54.654;9.410;2023-04-25T00:38:06;10.10;85.30
4501;DHT22;2263;54.654;9.410;2023-04-25T00:40:33;10.00;85.10
4501;DHT22;2263;54.654;9.410;2023-04-25T00:43:01;10.00;85.10
4501;DHT22;2263;54.654;9.410;2023-04-25T00:45:29;10.00;85.10
4501;DHT22;2263;54.654;9.410;2023-04-25T00:47:57;10.00;85.00
4501;DHT22;2263;54.654;9.410;2023-04-25T00:50:24;10.00;85.00
4501;DHT22;2263;54.654;9.410;2023-04-25T00:52:52;10.00;85.00
4501;DHT22;2263;54.654;9.410;2023-04-25T00:55:20;10.00;85.00
4501;DHT22;2263;54.654;9.410;2023-04-25T00:57:48;10.00;84.90
4501;DHT22;2263;54.654;9.410;2023-04-25T01:00:17;10.00;85.00
4501;DHT22;2263;54.654;9.410;2023-04-25T01:02:45;10.00;84.90
4501;DHT22;2263;54.654;9.410;2023-04-25T01:05:14;9.90;85.80
4501;DHT22;2263;54.654;9.410;2023-04-25T01:07:41;9.90;85.80
4501;DHT22;2263;54.654;9.410;2023-04-25T01:10:09;9.90;85.80
4501;DHT22;2263;54.654;9.410;2023-04-25T01:12:37;9.90;85.80
4501;DHT22;2263;54.654;9.410;2023-04-25T01:15:05;9.90;85.80
4501;DHT22;2263;54.654;9.410;2023-04-25T01:17:35;9.90;85.80
4501;DHT22;2263;54.654;9.410;2023-04-25T01:20:04;9.90;85.70
4501;DHT22;2263;54.654;9.410;2023-04-25T01:22:32;9.90;85.70
4501;DHT22;2263;54.654;9.410;2023-04-25T01:25:00;9.80;85.70
4501;DHT22;2263;54.654;9.410;2023-04-25T01:27:28;9.80;85.60
4501;DHT22;2263;54.654;9.410;2023-04-25T01:33:56;9.80;85.60
4501;DHT22;2263;54.654;9.410;2023-04-25T01:36:23;9.80;85.50
4501;DHT22;2263;54.654;9.410;2023-04-25T01:38:51;9.80;85.30
4501;DHT22;2263;54.654;9.410;2023-04-25T01:41:19;9.70;85.10
4501;DHT22;2263;54.654;9.410;2023-04-25T01:43:49;9.70;85.20
4501;DHT22;2263;54.654;9.410;2023-04-25T01:46:17;9.70;85.40
4501;DHT22;2263;54.654;9.410;2023-04-25T01:48:45;9.70;85.30
4501;DHT22;2263;54.654;9.410;2023-04-25T01:51:13;9.70;85.20
4501;DHT22;2263;54.654;9.410;2023-04-25T01:53:41;9.70;85.10
4501;DHT22;2263;54.654;9.410;2023-04-25T01:56:09;9.70;85.20
4501;DHT22;2263;54.654;9.410;2023-04-25T01:58:37;9.70;85.10
4501;DHT22;2263;54.654;9.410;2023-04-25T02:01:04;9.70;85.00
4501;DHT22;2263;54.654;9.410;2023-04-25T02:03:32;9.60;84.90
4501;DHT22;2263;54.654;9.410;2023-04-25T02:06:00;9.60;85.00
4501;DHT22;2263;54.654;9.410;2023-04-25T02:08:28;9.60;84.80
4501;DHT22;2263;54.654;9.410;2023-04-25T02:14:43;9.60;84.90
4501;DHT22;2263;54.654;9.410;2023-04-25T02:17:11;9.60;84.80
4501;DHT22;2263;54.654;9.410;2023-04-25T02:19:39;9.60;84.80
4501;DHT22;2263;54.654;9.410;2023-04-25T02:22:07;9.60;85.00
4501;DHT22;2263;54.654;9.410;2023-04-25T02:24:34;9.60;84.70
4501;DHT22;2263;54.654;9.410;2023-04-25T02:27:02;9.60;84.70
4501;DHT22;2263;54.654;9.410;2023-04-25T02:29:30;9.50;84.60
4501;DHT22;2263;54.654;9.410;2023-04-25T02:31:57;9.50;84.60
4501;DHT22;2263;54.654;9.410;2023-04-25T02:34:25;9.50;84.60
4501;DHT22;2263;54.654;9.410;2023-04-25T02:36:52;9.50;84.70
4501;DHT22;2263;54.654;9.410;2023-04-25T02:39:20;9.50;84.60
4501;DHT22;2263;54.654;9.410;2023-04-25T02:41:49;9.50;84.70
4501;DHT22;2263;54.654;9.410;2023-04-25T02:44:16;9.50;84.60
4501;DHT22;2263;54.654;9.410;2023-04-25T02:46:44;9.50;84.70
4501;DHT22;2263;54.654;9.410;2023-04-25T02:49:11;9.50;84.70
4501;DHT22;2263;54.654;9.410;2023-04-25T02:51:39;9.40;84.50
4501;DHT22;2263;54.654;9.410;2023-04-25T02:54:06;9.50;84.60
4501;DHT22;2263;54.654;9.410;2023-04-25T02:56:34;9.40;84.40
4501;DHT22;2263;54.654;9.410;2023-04-25T02:59:02;9.40;84.40
4501;DHT22;2263;54.654;9.410;2023-04-25T03:01:29;9.40;84.20
4501;DHT22;2263;54.654;9.410;2023-04-25T03:03:57;9.40;84.30
4501;DHT22;2263;54.654;9.410;2023-04-25T03:06:24;9.40;84.00
4501;DHT22;2263;54.654;9.410;2023-04-25T03:08:52;9.40;84.20
4501;DHT22;2263;54.654;9.410;2023-04-25T03:11:20;9.40;84.20
4501;DHT22;2263;54.654;9.410;2023-04-25T03:49:59;9.20;83.60
4501;DHT22;2263;54.654;9.410;2023-04-25T03:52:29;9.20;83.70
4501;DHT22;2263;54.654;9.410;2023-04-25T03:59:03;9.20;83.20
4501;DHT22;2263;54.654;9.410;2023-04-25T04:01:30;9.10;83.20
4501;DHT22;2263;54.654;9.410;2023-04-25T04:03:58;9.10;83.20
4501;DHT22;2263;54.654;9.410;2023-04-25T04:06:26;9.10;83.30
4501;DHT22;2263;54.654;9.410;2023-04-25T04:08:54;9.10;83.30
4501;DHT22;2263;54.654;9.410;2023-04-25T04:11:22;9.10;83.20
4501;DHT22;2263;54.654;9.410;2023-04-25T04:13:50;9.10;83.30
4501;DHT22;2263;54.654;9.410;2023-04-25T04:16:18;9.10;83.20
4501;DHT22;2263;54.654;9.410;2023-04-25T04:18:46;9.10;83.20
4501;DHT22;2263;54.654;9.410;2023-04-25T04:21:14;9.10;82.90
4501;DHT22;2263;54.654;9.410;2023-04-25T04:23:42;9.00;82.80
4501;DHT22;2263;54.654;9.410;2023-04-25T04:26:10;9.00;82.70
4501;DHT22;2263;54.654;9.410;2023-04-25T04:28:39;9.00;82.90
4501;DHT22;2263;54.654;9.410;2023-04-25T04:31:07;9.00;82.70
4501;DHT22;2263;54.654;9.410;2023-04-25T04:33:35;9.00;82.90
4501;DHT22;2263;54.654;9.410;2023-04-25T04:36:04;9.00;82.90
4501;DHT22;2263;54.654;9.410;2023-04-25T04:38:34;9.00;82.90
4501;DHT22;2263;54.654;9.410;2023-04-25T04:41:06;9.00;82.50
4501;DHT22;2263;54.654;9.410;2023-04-25T04:43:33;9.00;82.60
4501;DHT22;2263;54.654;9.410;2023-04-25T04:46:01;9.00;82.40
4501;DHT22;2263;54.654;9.410;2023-04-25T04:48:33;8.90;82.40
4501;DHT22;2263;54.654;9.410;2023-04-25T04:51:01;8.90;82.30
4501;DHT22;2263;54.654;9.410;2023-04-25T04:53:29;8.90;82.30
4501;DHT22;2263;54.654;9.410;2023-04-25T04:55:56;8.90;82.30
4501;DHT22;2263;54.654;9.410;2023-04-25T04:58:24;8.90;82.00
4501;DHT22;2263;54.654;9.410;2023-04-25T05:00:51;8.90;82.20
4501;DHT22;2263;54.654;9.410;2023-04-25T05:03:19;8.90;81.90
4501;DHT22;2263;54.654;9.410;2023-04-25T05:05:47;8.90;82.40
4501;DHT22;2263;54.654;9.410;2023-04-25T05:08:15;8.90;81.70
4501;DHT22;2263;54.654;9.410;2023-04-25T05:10:42;8.90;81.80
4501;DHT22;2263;54.654;9.410;2023-04-25T05:13:10;8.90;81.90
4501;DHT22;2263;54.654;9.410;2023-04-25T05:15:37;8.80;81.70
4501;DHT22;2263;54.654;9.410;2023-04-25T05:18:05;8.80;82.00
4501;DHT22;2263;54.654;9.410;2023-04-25T05:20:32;8.80;81.60
4501;DHT22;2263;54.654;9.410;2023-04-25T05:23:00;8.80;81.60
4501;DHT22;2263;54.654;9.410;2023-04-25T05:25:28;8.80;81.80
4501;DHT22;2263;54.654;9.410;2023-04-25T05:27:59;8.80;81.50
4501;DHT22;2263;54.654;9.410;2023-04-25T05:30:27;8.80;81.20
4501;DHT22;2263;54.654;9.410;2023-04-25T05:32:54;8.80;81.60
4501;DHT22;2263;54.654;9.410;2023-04-25T05:35:23;8.80;81.50
4501;DHT22;2263;54.654;9.410;2023-04-25T05:37:50;8.80;81.60
4501;DHT22;2263;54.654;9.410;2023-04-25T05:40:18;8.80;81.70
4501;DHT22;2263;54.654;9.410;2023-04-25T05:42:45;8.80;81.50
4501;DHT22;2263;54.654;9.410;2023-04-25T05:45:13;8.80;81.60
4501;DHT22;2263;54.654;9.410;2023-04-25T05:47:40;8.80;81.60
4501;DHT22;2263;54.654;9.410;2023-04-25T05:50:08;8.80;81.50
4501;DHT22;2263;54.654;9.410;2023-04-25T05:52:36;8.80;81.20
4501;DHT22;2263;54.654;9.410;2023-04-25T05:55:03;8.80;81.40
4501;DHT22;2263;54.654;9.410;2023-04-25T05:57:31;8.80;81.30
4501;DHT22;2263;54.654;9.410;2023-04-25T05:59:59;8.80;80.60
4501;DHT22;2263;54.654;9.410;2023-04-25T06:02:26;8.50;78.40
4501;DHT22;2263;54.654;9.410;2023-04-25T06:04:55;8.50;80.80
4501;DHT22;2263;54.654;9.410;2023-04-25T06:07:25;8.60;80.50
4501;DHT22;2263;54.654;9.410;2023-04-25T06:09:54;8.60;80.70
4501;DHT22;2263;54.654;9.410;2023-04-25T06:12:22;8.60;81.00
4501;DHT22;2263;54.654;9.410;2023-04-25T06:14:49;8.70;81.00
4501;DHT22;2263;54.654;9.410;2023-04-25T06:17:17;8.70;80.80
4501;DHT22;2263;54.654;9.410;2023-04-25T06:19:45;8.70;80.80
4501;DHT22;2263;54.654;9.410;2023-04-25T06:22:12;8.70;81.00
4501;DHT22;2263;54.654;9.410;2023-04-25T06:24:40;8.70;81.10
4501;DHT22;2263;54.654;9.410;2023-04-25T06:27:07;8.70;81.30
4501;DHT22;2263;54.654;9.410;2023-04-25T06:29:35;8.70;81.30
4501;DHT22;2263;54.654;9.410;2023-04-25T06:32:02;8.70;81.30
4501;DHT22;2263;54.654;9.410;2023-04-25T06:34:30;8.70;81.20
4501;DHT22;2263;54.654;9.410;2023-04-25T06:36:58;8.70;81.10
4501;DHT22;2263;54.654;9.410;2023-04-25T06:39:25;8.70;81.30
4501;DHT22;2263;54.654;9.410;2023-04-25T06:41:53;8.70;81.30
4501;DHT22;2263;54.654;9.410;2023-04-25T06:44:21;8.70;81.30
4501;DHT22;2263;54.654;9.410;2023-04-25T06:46:50;8.80;81.30
4501;DHT22;2263;54.654;9.410;2023-04-25T06:49:17;8.80;81.40
4501;DHT22;2263;54.654;9.410;2023-04-25T06:51:45;8.70;81.30
4501;DHT22;2263;54.654;9.410;2023-04-25T06:54:13;8.70;81.40
4501;DHT22;2263;54.654;9.410;2023-04-25T06:56:40;8.80;81.40
4501;DHT22;2263;54.654;9.410;2023-04-25T06:59:08;8.80;81.30
4501;DHT22;2263;54.654;9.410;2023-04-25T07:01:36;8.80;81.30
4501;DHT22;2263;54.654;9.410;2023-04-25T07:04:04;8.80;81.50
4501;DHT22;2263;54.654;9.410;2023-04-25T07:06:32;8.80;81.40
4501;DHT22;2263;54.654;9.410;2023-04-25T07:09:00;8.80;81.40
4501;DHT22;2263;54.654;9.410;2023-04-25T07:11:27;8.70;81.20
4501;DHT22;2263;54.654;9.410;2023-04-25T07:13:55;8.80;81.20
4501;DHT22;2263;54.654;9.410;2023-04-25T07:16:23;8.80;81.10
4501;DHT22;2263;54.654;9.410;2023-04-25T07:18:50;8.80;81.00
4501;DHT22;2263;54.654;9.410;2023-04-25T07:21:18;8.80;81.10
4501;DHT22;2263;54.654;9.410;2023-04-25T07:23:46;8.80;80.90
4501;DHT22;2263;54.654;9.410;2023-04-25T07:26:14;8.80;80.90
4501;DHT22;2263;54.654;9.410;2023-04-25T07:28:42;8.80;80.70
4501;DHT22;2263;54.654;9.410;2023-04-25T07:31:10;8.80;80.60
4501;DHT22;2263;54.654;9.410;2023-04-25T07:33:38;8.80;80.70
4501;DHT22;2263;54.654;9.410;2023-04-25T07:36:06;8.80;80.60
4501;DHT22;2263;54.654;9.410;2023-04-25T07:38:33;8.80;80.40
4501;DHT22;2263;54.654;9.410;2023-04-25T07:41:01;8.90;80.40
4501;DHT22;2263;54.654;9.410;2023-04-25T07:43:28;8.90;80.60
4501;DHT22;2263;54.654;9.410;2023-04-25T07:45:56;8.90;80.30
4501;DHT22;2263;54.654;9.410;2023-04-25T07:48:24;8.90;80.50
4501;DHT22;2263;54.654;9.410;2023-04-25T07:50:52;8.80;80.00
4501;DHT22;2263;54.654;9.410;2023-04-25T07:53:19;8.80;80.00
4501;DHT22;2263;54.654;9.410;2023-04-25T07:55:47;8.80;80.10
4501;DHT22;2263;54.654;9.410;2023-04-25T07:58:15;8.80;80.10
4501;DHT22;2263;54.654;9.410;2023-04-25T08:00:48;8.80;80.40
4501;DHT22;2263;54.654;9.410;2023-04-25T08:03:16;8.80;80.20
4501;DHT22;2263;54.654;9.410;2023-04-25T08:05:44;8.90;80.30
4501;DHT22;2263;54.654;9.410;2023-04-25T08:08:13;8.90;80.10
4501;DHT22;2263;54.654;9.410;2023-04-25T08:10:43;8.90;80.40
4501;DHT22;2263;54.654;9.410;2023-04-25T08:13:13;8.90;80.40
4501;DHT22;2263;54.654;9.410;2023-04-25T08:15:40;8.80;80.10
4501;DHT22;2263;54.654;9.410;2023-04-25T08:18:08;8.90;79.80
4501;DHT22;2263;54.654;9.410;2023-04-25T08:20:36;8.80;80.10
4501;DHT22;2263;54.654;9.410;2023-04-25T08:23:04;8.90;79.90
4501;DHT22;2263;54.654;9.410;2023-04-25T08:25:31;8.90;80.00
4501;DHT22;2263;54.654;9.410;2023-04-25T08:27:59;8.90;79.60
4501;DHT22;2263;54.654;9.410;2023-04-25T08:30:30;8.90;79.20
4501;DHT22;2263;54.654;9.410;2023-04-25T08:32:58;8.90;79.80
4501;DHT22;2263;54.654;9.410;2023-04-25T08:35:25;9.00;79.50
4501;DHT22;2263;54.654;9.410;2023-04-25T08:37:53;9.00;79.70
4501;DHT22;2263;54.654;9.410;2023-04-25T08:40:22;9.00;79.80
4501;DHT22;2263;54.654;9.410;2023-04-25T08:42:59;9.00;79.80
4501;DHT22;2263;54.654;9.410;2023-04-25T08:45:28;9.00;79.80
4501;DHT22;2263;54.654;9.410;2023-04-25T08:47:57;9.00;79.90
4501;DHT22;2263;54.654;9.410;2023-04-25T08:50:26;9.00;80.20
4501;DHT22;2263;54.654;9.410;2023-04-25T08:52:54;8.90;80.10
4501;DHT22;2263;54.654;9.410;2023-04-25T08:55:23;8.90;80.40
4501;DHT22;2263;54.654;9.410;2023-04-25T08:57:51;9.00;80.30
4501;DHT22;2263;54.654;9.410;2023-04-25T09:00:20;9.00;80.40
4501;DHT22;2263;54.654;9.410;2023-04-25T09:02:52;9.00;80.50
4501;DHT22;2263;54.654;9.410;2023-04-25T09:05:21;9.00;80.40
4501;DHT22;2263;54.654;9.410;2023-04-25T09:07:50;9.00;80.30
4501;DHT22;2263;54.654;9.410;2023-04-25T09:10:18;9.00;80.30
4501;DHT22;2263;54.654;9.410;2023-04-25T09:13:05;9.00;80.30
4501;DHT22;2263;54.654;9.410;2023-04-25T09:15:33;9.00;80.30
4501;DHT22;2263;54.654;9.410;2023-04-25T09:18:13;9.00;80.20
4501;DHT22;2263;54.654;9.410;2023-04-25T09:20:42;9.00;80.40
4501;DHT22;2263;54.654;9.410;2023-04-25T09:23:14;9.10;80.70
4501;DHT22;2263;54.654;9.410;2023-04-25T09:25:42;9.10;80.80
4501;DHT22;2263;54.654;9.410;2023-04-25T09:28:11;9.20;80.90
4501;DHT22;2263;54.654;9.410;2023-04-25T09:30:38;9.20;80.80
4501;DHT22;2263;54.654;9.410;2023-04-25T09:33:07;9.20;80.70
4501;DHT22;2263;54.654;9.410;2023-04-25T09:35:45;9.30;80.60
4501;DHT22;2263;54.654;9.410;2023-04-25T09:38:14;9.30;80.50
4501;DHT22;2263;54.654;9.410;2023-04-25T09:40:46;9.30;80.50
4501;DHT22;2263;54.654;9.410;2023-04-25T09:43:21;9.30;80.50
4501;DHT22;2263;54.654;9.410;2023-04-25T09:45:50;9.30;80.70
4501;DHT22;2263;54.654;9.410;2023-04-25T09:48:22;9.30;80.80
4501;DHT22;2263;54.654;9.410;2023-04-25T09:51:06;9.30;81.00
4501;DHT22;2263;54.654;9.410;2023-04-25T09:53:38;9.30;81.00
4501;DHT22;2263;54.654;9.410;2023-04-25T09:56:08;9.40;81.10
4501;DHT22;2263;54.654;9.410;2023-04-25T09:58:38;9.40;81.10
4501;DHT22;2263;54.654;9.410;2023-04-25T10:01:08;9.40;81.20
4501;DHT22;2263;54.654;9.410;2023-04-25T10:03:38;9.40;81.30
4501;DHT22;2263;54.654;9.410;2023-04-25T10:06:14;9.60;81.30
4501;DHT22;2263;54.654;9.410;2023-04-25T10:08:45;9.60;81.20
4501;DHT22;2263;54.654;9.410;2023-04-25T10:11:15;9.70;81.20
4501;DHT22;2263;54.654;9.410;2023-04-25T10:13:44;9.60;81.10
4501;DHT22;2263;54.654;9.410;2023-04-25T10:16:13;9.70;81.10
4501;DHT22;2263;54.654;9.410;2023-04-25T10:18:40;9.70;81.00
4501;DHT22;2263;54.654;9.410;2023-04-25T10:21:08;9.70;81.20
4501;DHT22;2263;54.654;9.410;2023-04-25T10:23:36;9.70;81.40
4501;DHT22;2263;54.654;9.410;2023-04-25T10:26:05;9.70;81.40
4501;DHT22;2263;54.654;9.410;2023-04-25T10:28:59;9.70;81.50
4501;DHT22;2263;54.654;9.410;2023-04-25T10:31:30;9.80;81.60
4501;DHT22;2263;54.654;9.410;2023-04-25T10:34:00;9.90;81.50
4501;DHT22;2263;54.654;9.410;2023-04-25T10:36:31;9.90;81.30
4501;DHT22;2263;54.654;9.410;2023-04-25T10:39:04;9.90;81.40
4501;DHT22;2263;54.654;9.410;2023-04-25T10:41:46;9.90;81.50
4501;DHT22;2263;54.654;9.410;2023-04-25T10:44:15;10.00;80.10
4501;DHT22;2263;54.654;9.410;2023-04-25T10:46:44;10.00;80.20
4501;DHT22;2263;54.654;9.410;2023-04-25T10:49:29;10.00;80.40
4501;DHT22;2263;54.654;9.410;2023-04-25T10:52:18;9.90;81.30
4501;DHT22;2263;54.654;9.410;2023-04-25T10:54:48;9.90;81.30
4501;DHT22;2263;54.654;9.410;2023-04-25T10:57:42;9.90;81.30
4501;DHT22;2263;54.654;9.410;2023-04-25T11:00:19;9.90;81.50
4501;DHT22;2263;54.654;9.410;2023-04-25T11:02:59;9.80;81.50
4501;DHT22;2263;54.654;9.410;2023-04-25T11:05:33;9.80;81.80
4501;DHT22;2263;54.654;9.410;2023-04-25T11:08:13;9.80;81.90
4501;DHT22;2263;54.654;9.410;2023-04-25T11:10:45;9.90;82.10
4501;DHT22;2263;54.654;9.410;2023-04-25T11:13:17;10.00;81.00
4501;DHT22;2263;54.654;9.410;2023-04-25T11:15:51;10.00;81.00
4501;DHT22;2263;54.654;9.410;2023-04-25T11:18:41;10.00;80.90
4501;DHT22;2263;54.654;9.410;2023-04-25T11:21:10;10.10;80.90
4501;DHT22;2263;54.654;9.410;2023-04-25T11:23:38;10.20;81.00
4501;DHT22;2263;54.654;9.410;2023-04-25T11:26:05;10.20;80.80
4501;DHT22;2263;54.654;9.410;2023-04-25T11:28:33;10.20;80.90
4501;DHT22;2263;54.654;9.410;2023-04-25T11:31:02;10.20;80.60
4501;DHT22;2263;54.654;9.410;2023-04-25T11:33:31;10.20;80.70
4501;DHT22;2263;54.654;9.410;2023-04-25T11:35:59;10.20;80.50
4501;DHT22;2263;54.654;9.410;2023-04-25T11:38:27;10.20;80.60
4501;DHT22;2263;54.654;9.410;2023-04-25T11:40:55;10.20;80.80
4501;DHT22;2263;54.654;9.410;2023-04-25T11:43:23;10.10;81.20
4501;DHT22;2263;54.654;9.410;2023-04-25T11:45:50;10.20;81.50
4501;DHT22;2263;54.654;9.410;2023-04-25T11:48:19;10.20;81.50
4501;DHT22;2263;54.654;9.410;2023-04-25T11:50:53;10.20;81.40
4501;DHT22;2263;54.654;9.410;2023-04-25T11:53:22;10.20;81.40
4501;DHT22;2263;54.654;9.410;2023-04-25T11:55:52;10.20;81.20
4501;DHT22;2263;54.654;9.410;2023-04-25T11:58:20;10.20;81.10
4501;DHT22;2263;54.654;9.410;2023-04-25T12:00:47;10.20;81.10
4501;DHT22;2263;54.654;9.410;2023-04-25T12:03:18;10.20;80.70
4501;DHT22;2263;54.654;9.410;2023-04-25T12:05:46;10.20;80.60
4501;DHT22;2263;54.654;9.410;2023-04-25T12:08:15;10.20;80.50
4501;DHT22;2263;54.654;9.410;2023-04-25T12:10:45;10.30;80.50
4501;DHT22;2263;54.654;9.410;2023-04-25T12:13:20;10.40;80.40
4501;DHT22;2263;54.654;9.410;2023-04-25T12:15:47;10.40;80.40
4501;DHT22;2263;54.654;9.410;2023-04-25T12:18:19;10.40;80.50
4501;DHT22;2263;54.654;9.410;2023-04-25T12:20:48;10.40;80.20
4501;DHT22;2263;54.654;9.410;2023-04-25T12:23:16;10.50;80.30
4501;DHT22;2263;54.654;9.410;2023-04-25T12:25:44;10.50;80.30
4501;DHT22;2263;54.654;9.410;2023-04-25T12:28:18;10.50;80.00
4501;DHT22;2263;54.654;9.410;2023-04-25T12:31:03;10.50;80.20
4501;DHT22;2263;54.654;9.410;2023-04-25T12:33:36;10.60;80.10
4501;DHT22;2263;54.654;9.410;2023-04-25T12:36:05;10.60;80.00
4501;DHT22;2263;54.654;9.410;2023-04-25T12:38:38;10.60;80.00
4501;DHT22;2263;54.654;9.410;2023-04-25T12:41:06;10.50;79.50
4501;DHT22;2263;54.654;9.410;2023-04-25T12:43:34;10.50;79.30
4501;DHT22;2263;54.654;9.410;2023-04-25T12:46:02;10.50;78.50
4501;DHT22;2263;54.654;9.410;2023-04-25T12:48:30;10.50;78.70
4501;DHT22;2263;54.654;9.410;2023-04-25T12:50:58;10.50;78.40
4501;DHT22;2263;54.654;9.410;2023-04-25T12:53:26;10.50;78.60
4501;DHT22;2263;54.654;9.410;2023-04-25T12:55:53;10.50;78.50
4501;DHT22;2263;54.654;9.410;2023-04-25T12:58:26;10.50;79.00
4501;DHT22;2263;54.654;9.410;2023-04-25T13:00:53;10.50;79.30
4501;DHT22;2263;54.654;9.410;2023-04-25T13:03:21;10.50;80.20
4501;DHT22;2263;54.654;9.410;2023-04-25T13:05:50;10.50;79.60
4501;DHT22;2263;54.654;9.410;2023-04-25T13:08:19;10.50;79.60
4501;DHT22;2263;54.654;9.410;2023-04-25T13:10:48;10.50;79.50
4501;DHT22;2263;54.654;9.410;2023-04-25T13:13:15;10.50;79.50
4501;DHT22;2263;54.654;9.410;2023-04-25T13:15:43;10.60;79.70
4501;DHT22;2263;54.654;9.410;2023-04-25T13:18:11;10.60;79.50
4501;DHT22;2263;54.654;9.410;2023-04-25T13:20:39;10.60;79.50
4501;DHT22;2263;54.654;9.410;2023-04-25T13:23:07;10.60;79.00
4501;DHT22;2263;54.654;9.410;2023-04-25T13:25:35;10.60;79.10
4501;DHT22;2263;54.654;9.410;2023-04-25T13:28:02;10.60;78.80
4501;DHT22;2263;54.654;9.410;2023-04-25T13:30:30;10.60;78.80
4501;DHT22;2263;54.654;9.410;2023-04-25T15:50:14;10.80;76.60
4501;DHT22;2263;54.654;9.410;2023-04-25T15:52:42;10.80;76.10
4501;DHT22;2263;54.654;9.410;2023-04-25T15:55:12;10.70;76.10
4501;DHT22;2263;54.654;9.410;2023-04-25T15:57:39;10.70;76.00
4501;DHT22;2263;54.654;9.410;2023-04-25T16:00:09;10.70;76.20
4501;DHT22;2263;54.654;9.410;2023-04-25T16:02:40;10.70;75.90
4501;DHT22;2263;54.654;9.410;2023-04-25T16:05:09;10.70;75.50
4501;DHT22;2263;54.654;9.410;2023-04-25T16:07:42;10.70;75.90
4501;DHT22;2263;54.654;9.410;2023-04-25T16:10:11;10.80;76.30
4501;DHT22;2263;54.654;9.410;2023-04-25T16:12:39;10.80;75.40
4501;DHT22;2263;54.654;9.410;2023-04-25T16:15:07;10.70;75.80
4501;DHT22;2263;54.654;9.410;2023-04-25T16:17:35;10.70;75.50
4501;DHT22;2263;54.654;9.410;2023-04-25T16:20:03;10.70;75.40
4501;DHT22;2263;54.654;9.410;2023-04-25T16:22:39;10.70;75.50
4501;DHT22;2263;54.654;9.410;2023-04-25T16:25:07;10.70;75.50
4501;DHT22;2263;54.654;9.410;2023-04-25T16:27:35;10.70;75.60
4501;DHT22;2263;54.654;9.410;2023-04-25T16:30:08;10.70;75.60
4501;DHT22;2263;54.654;9.410;2023-04-25T16:32:36;10.70;75.70
4501;DHT22;2263;54.654;9.410;2023-04-25T16:35:06;10.70;75.60
4501;DHT22;2263;54.654;9.410;2023-04-25T16:37:34;10.60;75.00
4501;DHT22;2263;54.654;9.410;2023-04-25T16:40:02;10.60;75.30
4501;DHT22;2263;54.654;9.410;2023-04-25T16:42:30;10.60;75.40
4501;DHT22;2263;54.654;9.410;2023-04-25T16:44:58;10.60;75.50
4501;DHT22;2263;54.654;9.410;2023-04-25T16:47:25;10.60;75.60
4501;DHT22;2263;54.654;9.410;2023-04-25T16:49:53;10.60;75.60
4501;DHT22;2263;54.654;9.410;2023-04-25T16:52:20;10.60;75.50
4501;DHT22;2263;54.654;9.410;2023-04-25T16:54:49;10.60;75.70
4501;DHT22;2263;54.654;9.410;2023-04-25T16:57:17;10.50;75.80
4501;DHT22;2263;54.654;9.410;2023-04-25T16:59:45;10.50;75.70
4501;DHT22;2263;54.654;9.410;2023-04-25T17:02:13;10.50;75.50
4501;DHT22;2263;54.654;9.410;2023-04-25T17:04:41;10.50;75.70
4501;DHT22;2263;54.654;9.410;2023-04-25T17:07:08;10.50;75.70
4501;DHT22;2263;54.654;9.410;2023-04-25T17:09:36;10.50;75.70
4501;DHT22;2263;54.654;9.410;2023-04-25T17:12:04;10.50;75.50
4501;DHT22;2263;54.654;9.410;2023-04-25T17:14:31;10.50;75.50
4501;DHT22;2263;54.654;9.410;2023-04-25T17:17:02;10.50;75.50
4501;DHT22;2263;54.654;9.410;2023-04-25T17:19:30;10.50;75.30
4501;DHT22;2263;54.654;9.410;2023-04-25T17:21:58;10.50;75.30
4501;DHT22;2263;54.654;9.410;2023-04-25T17:24:25;10.50;75.10
4501;DHT22;2263;54.654;9.410;2023-04-25T17:26:53;10.40;75.10
4501;DHT22;2263;54.654;9.410;2023-04-25T17:29:22;10.40;75.10
4501;DHT22;2263;54.654;9.410;2023-04-25T17:31:50;10.40;74.80
4501;DHT22;2263;54.654;9.410;2023-04-25T17:34:19;10.40;75.20
4501;DHT22;2263;54.654;9.410;2023-04-25T17:36:47;10.40;75.10
4501;DHT22;2263;54.654;9.410;2023-04-25T17:39:14;10.40;74.50
4501;DHT22;2263;54.654;9.410;2023-04-25T17:41:43;10.40;74.60
4501;DHT22;2263;54.654;9.410;2023-04-25T17:44:12;10.30;74.50
4501;DHT22;2263;54.654;9.410;2023-04-25T17:46:39;10.30;74.60
4501;DHT22;2263;54.654;9.410;2023-04-25T17:49:07;10.30;74.50
4501;DHT22;2263;54.654;9.410;2023-04-25T17:51:37;10.30;74.70
4501;DHT22;2263;54.654;9.410;2023-04-25T17:54:04;10.30;74.50
4501;DHT22;2263;54.654;9.410;2023-04-25T17:56:35;10.30;74.50
4501;DHT22;2263;54.654;9.410;2023-04-25T17:59:04;10.30;74.30
4501;DHT22;2263;54.654;9.410;2023-04-25T18:01:31;10.30;74.50
4501;DHT22;2263;54.654;9.410;2023-04-25T18:03:59;10.20;74.60
4501;DHT22;2263;54.654;9.410;2023-04-25T18:06:27;10.20;74.40
4501;DHT22;2263;54.654;9.410;2023-04-25T18:08:55;10.20;74.30
4501;DHT22;2263;54.654;9.410;2023-04-25T18:11:25;10.20;74.40
4501;DHT22;2263;54.654;9.410;2023-04-25T18:13:53;10.20;74.50
4501;DHT22;2263;54.654;9.410;2023-04-25T18:16:21;10.20;74.70
4501;DHT22;2263;54.654;9.410;2023-04-25T18:18:49;10.20;74.70
4501;DHT22;2263;54.654;9.410;2023-04-25T18:21:21;10.10;74.60
4501;DHT22;2263;54.654;9.410;2023-04-25T18:23:48;10.10;74.50
4501;DHT22;2263;54.654;9.410;2023-04-25T18:26:16;10.10;74.40
4501;DHT22;2263;54.654;9.410;2023-04-25T18:28:44;10.10;74.20
4501;DHT22;2263;54.654;9.410;2023-04-25T18:31:12;10.10;74.30
4501;DHT22;2263;54.654;9.410;2023-04-25T18:33:43;10.10;74.40
4501;DHT22;2263;54.654;9.410;2023-04-25T18:36:10;10.10;74.40
4501;DHT22;2263;54.654;9.410;2023-04-25T18:38:40;10.00;74.10
4501;DHT22;2263;54.654;9.410;2023-04-25T18:41:07;10.00;74.20
4501;DHT22;2263;54.654;9.410;2023-04-25T18:43:55;10.00;74.20
4501;DHT22;2263;54.654;9.410;2023-04-25T18:46:31;10.00;74.10
4501;DHT22;2263;54.654;9.410;2023-04-25T18:49:00;10.00;74.10
4501;DHT22;2263;54.654;9.410;2023-04-25T18:51:28;9.90;75.00
4501;DHT22;2263;54.654;9.410;2023-04-25T18:53:58;9.90;75.10
4501;DHT22;2263;54.654;9.410;2023-04-25T18:56:26;9.90;75.10
4501;DHT22;2263;54.654;9.410;2023-04-25T18:58:55;9.90;75.00
4501;DHT22;2263;54.654;9.410;2023-04-25T19:01:24;9.90;75.20
4501;DHT22;2263;54.654;9.410;2023-04-25T19:03:52;9.90;75.00
4501;DHT22;2263;54.654;9.410;2023-04-25T19:06:26;9.90;75.10
4501;DHT22;2263;54.654;9.410;2023-04-25T19:08:55;9.90;75.10
4501;DHT22;2263;54.654;9.410;2023-04-25T19:11:24;9.90;75.10
4501;DHT22;2263;54.654;9.410;2023-04-25T19:13:51;9.80;74.90
4501;DHT22;2263;54.654;9.410;2023-04-25T19:16:22;9.80;75.00
4501;DHT22;2263;54.654;9.410;2023-04-25T19:18:52;9.80;74.90
4501;DHT22;2263;54.654;9.410;2023-04-25T19:21:20;9.80;75.10
4501;DHT22;2263;54.654;9.410;2023-04-25T19:23:48;9.80;75.30
4501;DHT22;2263;54.654;9.410;2023-04-25T19:26:16;9.80;75.30
4501;DHT22;2263;54.654;9.410;2023-04-25T19:28:45;9.80;75.40